This is the latest recevied weather packets stored in our database for station/object DH0DM-13. If no packets are shown the sender has not sent any weather packets the latest 10 day(s).
| Time | Temp. | Humidity | Pressure | Rain* | Wind** | Luminosity | Snow |
|---|---|---|---|---|---|---|---|
| 1788003398 | 21.67° C | 56% | 988.2 hPa | 2.03 mm | 2.68 m/s, 280° | - | - |
| 1788002796 | 21.67° C | 54% | 988.3 hPa | 2.03 mm | 9.39 m/s, 259° | - | - |
| 1788002194 | 22.22° C | 52% | 988.5 hPa | 2.03 mm | 6.71 m/s, 237° | - | - |
| 1788001594 | 22.22° C | 51% | 988.4 hPa | 2.03 mm | 12.07 m/s, 122° | - | - |
| 1788000993 | 22.78° C | 52% | 988.4 hPa | 2.03 mm | 8.05 m/s, 205° | - | - |
| 1788000392 | 21.67° C | 53% | 988.6 hPa | 2.03 mm | 5.81 m/s, 265° | - | - |
| 1787999791 | 21.67° C | 54% | 988.3 hPa | 2.03 mm | 7.15 m/s, 255° | - | - |
| 1787999190 | 21.67° C | 52% | 988.3 hPa | 2.03 mm | 14.75 m/s, 224° | - | - |
| 1787998589 | 21.67° C | 54% | 988.5 hPa | 2.03 mm | 6.26 m/s, 196° | - | - |
| 1787997989 | 21.11° C | 56% | 988.5 hPa | 2.03 mm | 9.39 m/s, 276° | - | - |
| 1787997388 | 21.11° C | 56% | 988.7 hPa | 2.03 mm | 9.39 m/s, 197° | - | - |
| 1787996787 | 21.67° C | 56% | 988.4 hPa | 2.03 mm | 12.52 m/s, 243° | - | - |
| 1787996186 | 20.56° C | 59% | 988.6 hPa | 2.03 mm | 11.62 m/s, 256° | - | - |
| 1787995585 | 21.67° C | 58% | 988.7 hPa | 2.03 mm | 3.58 m/s, 258° | - | - |
| 1787994984 | 20° C | 63% | 988.8 hPa | 2.03 mm | 1.79 m/s, 206° | - | - |
| 1787994383 | 20.56° C | 60% | 988.6 hPa | 2.03 mm | 11.62 m/s, 244° | - | - |
| 1787993782 | 20.56° C | 64% | 988.5 hPa | 2.03 mm | 3.58 m/s, 231° | - | - |
| 1787993181 | 20° C | 63% | 988.5 hPa | 2.03 mm | 3.58 m/s, 140° | - | - |
| 1787992580 | 20° C | 64% | 988.4 hPa | 2.03 mm | 6.71 m/s, 309° | - | - |
| 1787991979 | 20° C | 64% | 988.4 hPa | 2.03 mm | 8.05 m/s, 248° | - | - |
| 1787991378 | 20° C | 63% | 988.5 hPa | 2.03 mm | 9.83 m/s, 237° | - | - |
| 1787990778 | 20° C | 65% | 988.3 hPa | 2.03 mm | 9.39 m/s, 219° | - | - |
| 1787990177 | 19.44° C | 65% | 988.5 hPa | 2.03 mm | 6.71 m/s, 272° | - | - |
| 1787989576 | 18.89° C | 67% | 988.2 hPa | 2.03 mm | 10.28 m/s, 274° | - | - |
| 1787988975 | 18.89° C | 70% | 988.2 hPa | 2.03 mm | 1.79 m/s, 242° | - | - |
* Rain since midnight (hover to see other rain measurements)
** Current wind speed in m/s (hover to see current wind gust speed)